Time;durP1;ratioP1;P1;durP2;ratioP2;P2;SDS_P1;SDS_P2;PMS_P1;PMS_P2;Temp;Humidity;BMP_temperature;BMP_pressure;BME280_temperature;BME280_humidity;BME280_pressure;Samples;Min_cycle;Max_cycle;Signal;HPM_P1;HPM_P2
2021/11/23 00:00:32;;;;;;;4.07;3.70;;;3.10;99.90;;;;;;4973754;28;20279;-56
2021/11/23 00:02:59;;;;;;;4.33;3.93;;;3.10;99.90;;;;;;4973627;28;20218;-56
2021/11/23 00:05:26;;;;;;;4.80;3.90;;;3.10;99.90;;;;;;4973801;28;20627;-56
2021/11/23 00:07:52;;;;;;;4.50;4.07;;;3.00;99.90;;;;;;4973653;28;20219;-56
2021/11/23 00:10:20;;;;;;;5.63;3.80;;;3.00;99.90;;;;;;4973668;28;20219;-56
2021/11/23 00:12:47;;;;;;;5.27;4.47;;;3.00;99.90;;;;;;4973286;28;20712;-56
2021/11/23 00:15:14;;;;;;;4.70;4.30;;;2.90;99.90;;;;;;4973697;28;20634;-56
2021/11/23 00:17:41;;;;;;;4.57;4.10;;;2.90;99.90;;;;;;4973550;28;20215;-56
2021/11/23 00:20:09;;;;;;;4.23;3.83;;;2.90;99.90;;;;;;4973702;28;20216;-56
2021/11/23 00:22:36;;;;;;;5.23;4.03;;;2.90;99.90;;;;;;4973643;28;20243;-56
2021/11/23 00:25:05;;;;;;;4.70;3.90;;;2.90;99.90;;;;;;4973527;28;20259;-56
2021/11/23 00:27:33;;;;;;;4.63;4.23;;;2.80;99.90;;;;;;4973257;28;20677;-56
2021/11/23 00:30:01;;;;;;;4.47;3.93;;;2.80;99.90;;;;;;4973355;28;20212;-56
2021/11/23 00:32:28;;;;;;;8.33;4.87;;;2.80;99.90;;;;;;4973206;28;20239;-56
2021/11/23 00:34:54;;;;;;;4.10;3.77;;;2.80;99.90;;;;;;4973546;28;20209;-56
2021/11/23 00:37:21;;;;;;;4.30;3.90;;;2.80;99.90;;;;;;4973190;28;20215;-56
2021/11/23 00:39:48;;;;;;;4.23;3.83;;;2.70;99.90;;;;;;4973263;28;20215;-56
2021/11/23 00:42:14;;;;;;;4.17;3.77;;;2.70;99.90;;;;;;4972821;28;20228;-56
2021/11/23 00:44:42;;;;;;;5.37;3.63;;;2.70;99.90;;;;;;4973313;28;20212;-56
2021/11/23 00:47:09;;;;;;;5.87;4.27;;;2.70;99.90;;;;;;4973308;28;20205;-56
2021/11/23 00:49:36;;;;;;;6.80;3.90;;;2.70;99.90;;;;;;4977123;28;20680;-55
2021/11/23 00:52:02;;;;;;;4.93;4.10;;;2.80;99.90;;;;;;4976736;28;20591;-56
2021/11/23 00:54:29;;;;;;;4.57;3.67;;;2.80;99.90;;;;;;4977118;28;20234;-56
2021/11/23 00:56:56;;;;;;;4.50;4.10;;;2.80;99.90;;;;;;4976781;28;20561;-56
2021/11/23 00:59:22;;;;;;;4.20;3.80;;;2.70;99.90;;;;;;4977235;28;20212;-56
2021/11/23 01:01:50;;;;;;;5.17;3.97;;;2.50;99.90;;;;;;4976904;28;20224;-56
2021/11/23 01:04:17;;;;;;;4.33;3.93;;;2.40;99.90;;;;;;4976802;28;20700;-56
2021/11/23 01:06:45;;;;;;;5.73;4.50;;;2.30;99.90;;;;;;4977012;28;20219;-56
2021/11/23 01:09:12;;;;;;;5.30;4.33;;;2.30;99.90;;;;;;4976688;28;20219;-56
2021/11/23 01:11:39;;;;;;;5.70;4.50;;;2.40;99.90;;;;;;4976568;28;20227;-56
2021/11/23 01:14:07;;;;;;;5.20;4.40;;;2.50;99.90;;;;;;4976912;28;20220;-56
2021/11/23 01:16:34;;;;;;;4.63;3.97;;;2.50;99.90;;;;;;4976837;28;20211;-56
2021/11/23 01:19:03;;;;;;;5.00;4.30;;;2.60;99.90;;;;;;4976683;28;20688;-56
2021/11/23 01:21:30;;;;;;;4.57;4.17;;;2.60;99.90;;;;;;4976521;28;20247;-56
2021/11/23 01:23:56;;;;;;;5.03;4.50;;;2.60;99.90;;;;;;4976631;28;20215;-56
2021/11/23 01:26:23;;;;;;;5.00;4.33;;;2.60;99.90;;;;;;4976741;28;20240;-56
2021/11/23 01:28:50;;;;;;;4.90;4.50;;;2.60;99.90;;;;;;4976251;28;20561;-56
2021/11/23 01:31:17;;;;;;;6.13;4.13;;;2.60;99.90;;;;;;4976466;28;20232;-56
2021/11/23 01:33:43;;;;;;;5.03;4.10;;;2.50;99.90;;;;;;4976593;28;20258;-56
2021/11/23 01:36:11;;;;;;;6.60;4.67;;;2.40;99.90;;;;;;4976601;28;20344;-56
2021/11/23 01:38:40;;;;;;;4.90;4.37;;;2.40;99.90;;;;;;4976315;28;20208;-56
2021/11/23 01:41:07;;;;;;;4.83;4.33;;;2.40;99.90;;;;;;4976460;28;20233;-56
2021/11/23 01:43:34;;;;;;;4.70;4.30;;;2.40;99.90;;;;;;4976384;28;20208;-57
2021/11/23 01:46:01;;;;;;;5.77;4.67;;;2.40;99.90;;;;;;4976149;28;20212;-56
2021/11/23 01:48:28;;;;;;;5.70;4.43;;;2.30;99.90;;;;;;4976259;28;20204;-57
2021/11/23 01:50:55;;;;;;;5.37;4.30;;;2.30;99.90;;;;;;4975858;28;20231;-55
2021/11/23 01:53:23;;;;;;;5.37;4.53;;;2.30;99.90;;;;;;4976200;28;20262;-56
2021/11/23 01:55:50;;;;;;;5.93;4.97;;;2.30;99.90;;;;;;4976125;28;20208;-56
2021/11/23 01:58:17;;;;;;;5.30;4.80;;;2.30;99.90;;;;;;4975962;28;20251;-57
2021/11/23 02:00:45;;;;;;;5.80;4.67;;;2.30;99.90;;;;;;4974727;28;20239;-57
2021/11/23 02:03:12;;;;;;;5.00;4.53;;;2.30;99.90;;;;;;4975673;28;20211;-56
2021/11/23 02:05:40;;;;;;;5.53;5.03;;;2.30;99.90;;;;;;4975731;28;20669;-57
2021/11/23 02:08:07;;;;;;;5.80;4.90;;;2.30;99.90;;;;;;4975941;28;20208;-56
2021/11/23 02:10:35;;;;;;;5.43;4.40;;;2.30;99.90;;;;;;4975899;28;20256;-56
2021/11/23 02:13:03;;;;;;;4.83;4.40;;;2.30;99.90;;;;;;4975506;28;20282;-56
2021/11/23 02:15:30;;;;;;;6.03;4.90;;;2.30;99.90;;;;;;4975789;28;20215;-57
2021/11/23 02:17:56;;;;;;;8.07;6.10;;;2.40;99.90;;;;;;4975496;28;20212;-57
2021/11/23 02:20:25;;;;;;;5.80;5.10;;;2.40;99.90;;;;;;4975300;28;20208;-57
2021/11/23 02:22:53;;;;;;;6.60;5.30;;;2.30;99.90;;;;;;4975589;28;20219;-56
2021/11/23 02:25:20;;;;;;;5.67;4.37;;;2.30;99.90;;;;;;4975352;28;20554;-57
2021/11/23 02:27:49;;;;;;;5.80;5.17;;;2.30;99.90;;;;;;4975408;28;20224;-57
2021/11/23 02:30:16;;;;;;;5.77;5.00;;;2.30;99.90;;;;;;4975381;28;20259;-57
2021/11/23 02:32:51;;;;;;;5.20;4.70;;;2.30;99.90;;;;;;4975013;28;20228;-56
2021/11/23 02:35:19;;;;;;;7.37;5.00;;;2.20;99.90;;;;;;4975598;28;20208;-57
2021/11/23 02:37:49;;;;;;;5.07;4.57;;;2.20;99.90;;;;;;4975280;28;20239;-57
2021/11/23 02:40:17;;;;;;;5.27;4.63;;;2.10;99.90;;;;;;4974634;28;20591;-57
2021/11/23 02:42:44;;;;;;;5.13;4.53;;;2.00;99.90;;;;;;4974748;28;20204;-57
2021/11/23 02:45:12;;;;;;;6.67;4.80;;;2.00;99.90;;;;;;4975095;28;20215;-57
2021/11/23 02:47:40;;;;;;;5.07;4.57;;;2.00;99.90;;;;;;4975321;28;20209;-57
2021/11/23 02:50:09;;;;;;;6.63;5.20;;;2.00;99.90;;;;;;4975225;28;20216;-57
2021/11/23 02:52:36;;;;;;;7.57;5.90;;;2.00;99.90;;;;;;4974878;28;20239;-57
2021/11/23 02:55:06;;;;;;;5.93;5.10;;;2.00;99.90;;;;;;4975047;28;20208;-57
2021/11/23 02:57:35;;;;;;;7.20;4.97;;;2.10;99.90;;;;;;4974936;28;20215;-57
2021/11/23 03:00:06;;;;;;;5.73;5.00;;;2.10;99.90;;;;;;4975300;28;20563;-57
2021/11/23 03:02:33;;;;;;;7.40;5.90;;;2.10;99.90;;;;;;4974632;28;20236;-57
2021/11/23 03:05:00;;;;;;;5.83;5.23;;;2.10;99.90;;;;;;4974710;28;20669;-57
2021/11/23 03:07:27;;;;;;;8.83;5.63;;;2.10;99.90;;;;;;4974789;28;20240;-57
2021/11/23 03:09:54;;;;;;;5.67;5.07;;;2.10;99.90;;;;;;4974906;28;20216;-57
2021/11/23 03:12:25;;;;;;;6.03;5.43;;;2.10;99.90;;;;;;4973930;28;20660;-57
2021/11/23 03:14:52;;;;;;;5.60;5.10;;;2.10;99.90;;;;;;4974871;28;20220;-55
2021/11/23 03:17:20;;;;;;;6.47;5.63;;;2.10;99.90;;;;;;4974413;28;20215;-56
2021/11/23 03:19:49;;;;;;;6.10;5.30;;;2.00;99.90;;;;;;4974679;28;20209;-56
2021/11/23 03:22:17;;;;;;;5.87;5.27;;;1.90;99.90;;;;;;4974196;28;20724;-56
2021/11/23 03:24:44;;;;;;;6.77;5.70;;;1.90;99.90;;;;;;4974289;28;20219;-55
2021/11/23 03:27:12;;;;;;;7.40;5.60;;;1.90;99.90;;;;;;4974659;28;20219;-56
2021/11/23 03:29:41;;;;;;;6.33;5.13;;;1.90;99.90;;;;;;4974516;28;20215;-56
2021/11/23 03:32:09;;;;;;;6.47;5.17;;;2.00;99.90;;;;;;4973948;28;20228;-56
2021/11/23 03:34:38;;;;;;;7.47;4.67;;;2.00;99.90;;;;;;4974413;28;20208;-55
2021/11/23 03:37:06;;;;;;;5.90;5.10;;;2.00;99.90;;;;;;4974115;28;20236;-56
2021/11/23 03:39:34;;;;;;;5.87;5.00;;;1.90;99.90;;;;;;4974456;28;20625;-56
2021/11/23 03:42:00;;;;;;;5.90;5.30;;;1.90;99.90;;;;;;4974024;28;20228;-55
2021/11/23 03:44:27;;;;;;;5.53;5.03;;;1.90;99.90;;;;;;4974147;28;20207;-56
2021/11/23 03:46:55;;;;;;;6.63;4.53;;;1.90;99.90;;;;;;4973918;28;20219;-56
2021/11/23 03:49:22;;;;;;;5.07;4.50;;;1.90;99.90;;;;;;4973925;28;20677;-56
2021/11/23 03:51:49;;;;;;;5.73;4.40;;;1.80;99.90;;;;;;4973801;28;20282;-56
2021/11/23 03:54:15;;;;;;;5.30;4.80;;;1.80;99.90;;;;;;4973822;28;20760;-56
2021/11/23 03:56:43;;;;;;;7.07;4.70;;;1.80;99.90;;;;;;4973937;28;20208;-56
2021/11/23 03:59:10;;;;;;;5.67;4.70;;;1.70;99.90;;;;;;4974004;28;20215;-56
2021/11/23 04:01:36;;;;;;;6.57;5.10;;;1.60;99.90;;;;;;4973665;28;20279;-56
2021/11/23 04:04:05;;;;;;;6.50;5.10;;;1.60;99.90;;;;;;4973917;28;20207;-56
2021/11/23 04:06:31;;;;;;;7.63;5.33;;;1.50;99.90;;;;;;4973550;28;20239;-56
2021/11/23 04:08:58;;;;;;;5.43;4.70;;;1.50;99.90;;;;;;4973845;28;20676;-56
2021/11/23 04:11:25;;;;;;;7.17;5.50;;;1.50;99.90;;;;;;4973472;28;20236;-56
2021/11/23 04:13:52;;;;;;;5.83;5.23;;;1.50;99.90;;;;;;4973682;28;20228;-55
2021/11/23 04:16:20;;;;;;;7.40;5.63;;;1.50;99.90;;;;;;4973597;28;20212;-56
2021/11/23 04:18:46;;;;;;;9.30;6.93;;;1.50;99.90;;;;;;4973677;28;20303;-56
2021/11/23 04:21:15;;;;;;;8.80;6.53;;;1.50;99.90;;;;;;4973427;28;20243;-56
2021/11/23 04:23:41;;;;;;;9.40;5.70;;;1.40;99.90;;;;;;4972885;28;20673;-56
2021/11/23 04:26:08;;;;;;;7.40;6.03;;;1.50;99.90;;;;;;4973452;28;20216;-56
2021/11/23 04:28:35;;;;;;;9.00;5.53;;;1.40;99.90;;;;;;4973480;28;20213;-56
2021/11/23 04:31:03;;;;;;;5.77;5.17;;;1.40;99.90;;;;;;4973393;28;20723;-56
2021/11/23 04:33:30;;;;;;;7.07;6.23;;;1.50;99.90;;;;;;4973003;28;20279;-56
2021/11/23 04:35:57;;;;;;;7.17;6.30;;;1.40;99.90;;;;;;4973306;28;20672;-56
2021/11/23 04:38:25;;;;;;;6.90;5.97;;;1.40;99.90;;;;;;4973497;28;20208;-55
2021/11/23 04:40:52;;;;;;;6.80;6.00;;;1.30;99.90;;;;;;4973364;28;20228;-55
2021/11/23 04:43:18;;;;;;;7.07;6.10;;;1.30;99.90;;;;;;4972939;28;20215;-56
2021/11/23 04:45:45;;;;;;;6.43;5.83;;;1.20;99.90;;;;;;4973269;28;20619;-56
2021/11/23 04:48:12;;;;;;;7.37;6.23;;;1.20;99.90;;;;;;4973252;28;20216;-56
2021/11/23 04:50:39;;;;;;;6.70;6.03;;;1.10;99.90;;;;;;4973261;28;20795;-56
2021/11/23 04:53:08;;;;;;;6.97;6.23;;;1.10;99.90;;;;;;4973155;28;20236;-56
2021/11/23 04:55:36;;;;;;;7.43;6.30;;;1.00;99.90;;;;;;4973283;28;20468;-56
2021/11/23 04:58:03;;;;;;;9.97;6.50;;;0.90;99.90;;;;;;4973156;28;20580;-56
2021/11/23 05:00:30;;;;;;;7.50;6.43;;;1.00;99.90;;;;;;4973120;28;20216;-56
2021/11/23 05:02:57;;;;;;;6.97;6.00;;;1.00;99.90;;;;;;4973145;28;20200;-56
2021/11/23 05:05:25;;;;;;;7.10;6.40;;;1.00;99.90;;;;;;4973459;28;20212;-56
2021/11/23 05:07:52;;;;;;;8.30;6.77;;;1.00;99.90;;;;;;4973392;28;20559;-55
2021/11/23 05:10:18;;;;;;;7.63;6.80;;;1.00;99.90;;;;;;4973096;28;20260;-56
2021/11/23 05:12:46;;;;;;;8.30;7.07;;;1.00;99.90;;;;;;4972750;28;20719;-57
2021/11/23 05:15:13;;;;;;;15.37;8.00;;;1.00;99.90;;;;;;4973011;28;20259;-57
2021/11/23 05:17:41;;;;;;;7.87;6.90;;;1.00;99.90;;;;;;4973386;28;20208;-56
2021/11/23 05:20:09;;;;;;;9.87;7.80;;;1.00;99.90;;;;;;4973360;28;20600;-56
2021/11/23 05:22:36;;;;;;;8.20;7.37;;;1.00;99.90;;;;;;4972835;28;20314;-56
2021/11/23 05:25:04;;;;;;;8.07;7.27;;;0.90;99.90;;;;;;4973001;28;20212;-56
2021/11/23 05:27:30;;;;;;;9.27;7.27;;;0.90;99.90;;;;;;4974330;28;20251;-56
2021/11/23 05:29:59;;;;;;;8.67;7.23;;;0.90;99.90;;;;;;4974039;28;20266;-55
2021/11/23 05:32:26;;;;;;;9.23;7.57;;;1.00;99.90;;;;;;4972807;28;20232;-57
2021/11/23 05:34:52;;;;;;;8.83;7.80;;;1.00;99.90;;;;;;4975377;28;20232;-56
2021/11/23 05:37:19;;;;;;;9.53;7.30;;;1.10;99.90;;;;;;4976437;28;20286;-56
2021/11/23 05:39:46;;;;;;;8.57;7.67;;;1.10;99.90;;;;;;4976435;28;20215;-57
2021/11/23 05:42:13;;;;;;;7.80;7.00;;;1.10;99.90;;;;;;4975945;28;20720;-56
2021/11/23 05:44:40;;;;;;;10.07;7.90;;;1.10;99.90;;;;;;4976314;28;20793;-56
2021/11/23 05:47:09;;;;;;;10.10;7.83;;;1.10;99.90;;;;;;4976160;28;20561;-56
2021/11/23 05:49:36;;;;;;;10.67;8.10;;;1.10;99.90;;;;;;4976089;28;20255;-56
2021/11/23 05:52:03;;;;;;;8.47;7.57;;;1.10;99.90;;;;;;4975868;28;20235;-56
2021/11/23 05:54:29;;;;;;;9.20;7.33;;;1.00;99.90;;;;;;4975891;28;20220;-56
2021/11/23 05:56:56;;;;;;;9.13;7.67;;;1.00;99.90;;;;;;4975985;28;20211;-57
2021/11/23 05:59:23;;;;;;;9.33;7.23;;;1.00;99.90;;;;;;4976186;28;20208;-56
2021/11/23 06:01:49;;;;;;;7.60;6.80;;;0.90;99.90;;;;;;4975740;28;20704;-56
2021/11/23 06:04:17;;;;;;;31.50;18.23;;;0.90;99.90;;;;;;4975878;28;20208;-56
2021/11/23 06:06:44;;;;;;;22.93;14.30;;;1.00;99.90;;;;;;4976003;28;20215;-56
2021/11/23 06:09:12;;;;;;;7.57;6.77;;;0.90;99.90;;;;;;4975658;28;20215;-56
2021/11/23 06:11:39;;;;;;;11.63;7.90;;;0.90;99.90;;;;;;4976613;28;20250;-57
2021/11/23 06:14:06;;;;;;;11.97;7.93;;;0.90;99.90;;;;;;4976371;28;20266;-57
2021/11/23 06:16:35;;;;;;;13.03;9.27;;;0.90;99.90;;;;;;4975538;28;20212;-57
2021/11/23 06:19:02;;;;;;;10.37;8.00;;;1.00;99.90;;;;;;4976146;28;20267;-57
2021/11/23 06:21:30;;;;;;;8.73;7.10;;;0.90;99.90;;;;;;4975646;28;20613;-57
2021/11/23 06:23:57;;;;;;;16.80;11.87;;;0.90;99.90;;;;;;4975174;28;20204;-56
2021/11/23 06:26:23;;;;;;;12.00;8.07;;;0.90;99.90;;;;;;4975463;28;20221;-57
2021/11/23 06:28:50;;;;;;;12.73;8.30;;;0.80;99.90;;;;;;4975226;28;20212;-56
2021/11/23 06:31:17;;;;;;;10.33;8.37;;;0.80;99.90;;;;;;4975138;28;20224;-56
2021/11/23 06:33:44;;;;;;;9.63;8.30;;;0.70;99.90;;;;;;4974978;28;20700;-57
2021/11/23 06:36:10;;;;;;;11.17;8.13;;;0.70;99.90;;;;;;4975257;28;20219;-56
2021/11/23 06:38:39;;;;;;;13.23;9.97;;;0.70;99.90;;;;;;4975020;28;20212;-56
2021/11/23 06:41:05;;;;;;;10.97;8.97;;;0.80;99.90;;;;;;4975372;28;20641;-57
2021/11/23 06:43:32;;;;;;;13.83;10.10;;;0.80;99.90;;;;;;4975210;28;20211;-56
2021/11/23 06:45:59;;;;;;;12.17;9.70;;;0.70;99.90;;;;;;4974501;28;20212;-56
2021/11/23 06:48:25;;;;;;;14.93;9.67;;;0.70;99.90;;;;;;4974937;28;20231;-57
2021/11/23 06:50:53;;;;;;;17.73;12.27;;;0.70;99.90;;;;;;4974759;28;20232;-57
2021/11/23 06:53:20;;;;;;;20.20;13.23;;;0.70;99.90;;;;;;4974637;28;20315;-57
2021/11/23 06:55:48;;;;;;;13.93;10.13;;;0.80;99.90;;;;;;4975125;28;20220;-56
2021/11/23 06:58:14;;;;;;;26.70;16.37;;;0.90;99.90;;;;;;4974861;28;20673;-56
2021/11/23 07:00:41;;;;;;;17.13;12.60;;;0.90;99.90;;;;;;4975437;28;20224;-57
2021/11/23 07:03:09;;;;;;;18.50;12.77;;;1.00;99.90;;;;;;4975642;28;20212;-57
2021/11/23 07:05:36;;;;;;;15.40;10.37;;;1.00;99.90;;;;;;4974672;28;20208;-57
2021/11/23 07:08:03;;;;;;;12.27;9.43;;;1.10;99.90;;;;;;4974859;28;20216;-57
2021/11/23 07:10:30;;;;;;;10.77;9.00;;;1.10;99.90;;;;;;4974928;28;20244;-56
2021/11/23 07:12:58;;;;;;;12.83;9.63;;;1.10;99.90;;;;;;4974643;28;20590;-57
2021/11/23 07:15:25;;;;;;;16.77;11.03;;;1.20;99.90;;;;;;4974490;28;20224;-57
2021/11/23 07:17:52;;;;;;;13.10;9.10;;;1.10;99.90;;;;;;4974566;28;20240;-57
2021/11/23 07:20:19;;;;;;;12.43;8.53;;;1.20;99.90;;;;;;4974345;28;20270;-57
2021/11/23 07:22:45;;;;;;;11.23;8.40;;;1.20;99.90;;;;;;4974278;28;20677;-57
2021/11/23 07:25:12;;;;;;;10.13;8.13;;;1.20;99.90;;;;;;4974691;28;20200;-56
2021/11/23 07:27:39;;;;;;;11.80;8.43;;;1.10;99.90;;;;;;4974372;28;20239;-56
2021/11/23 07:30:08;;;;;;;12.83;8.60;;;1.20;99.90;;;;;;4974477;28;20279;-56
2021/11/23 07:32:35;;;;;;;13.27;8.93;;;1.20;99.90;;;;;;4973940;28;20228;-56
2021/11/23 07:35:03;;;;;;;12.27;8.63;;;1.20;99.90;;;;;;4974443;28;20266;-56
2021/11/23 07:37:30;;;;;;;10.07;7.90;;;1.30;99.90;;;;;;4974182;28;20580;-56
2021/11/23 07:39:57;;;;;;;12.90;9.23;;;1.20;99.90;;;;;;4974253;28;20239;-57
2021/11/23 07:42:24;;;;;;;12.53;8.33;;;1.20;99.90;;;;;;4973424;28;20243;-56
2021/11/23 07:44:50;;;;;;;9.83;7.60;;;1.20;99.90;;;;;;4973961;28;20204;-56
2021/11/23 07:47:18;;;;;;;10.27;8.60;;;1.20;99.90;;;;;;4973989;28;20215;-57
2021/11/23 07:49:45;;;;;;;12.20;8.40;;;1.20;99.90;;;;;;4974238;28;20269;-56
2021/11/23 07:52:15;;;;;;;12.37;8.40;;;1.30;99.90;;;;;;4973987;28;20225;-56
2021/11/23 07:54:42;;;;;;;12.17;8.43;;;1.30;99.90;;;;;;4973982;28;20224;-56
2021/11/23 07:57:09;;;;;;;12.53;9.50;;;1.30;99.90;;;;;;4972968;28;20213;-56
2021/11/23 07:59:35;;;;;;;15.87;10.30;;;1.40;99.90;;;;;;4973988;28;20209;-56
2021/11/23 08:02:03;;;;;;;13.57;8.80;;;1.40;99.90;;;;;;4973765;28;20229;-56
2021/11/23 08:04:31;;;;;;;11.43;9.23;;;1.50;99.90;;;;;;4973959;28;20200;-57
2021/11/23 08:06:57;;;;;;;11.03;8.80;;;1.90;99.90;;;;;;4973844;28;20208;-57
2021/11/23 08:09:24;;;;;;;15.87;9.23;;;1.70;99.90;;;;;;4973668;28;20239;-56
2021/11/23 08:11:51;;;;;;;11.53;9.60;;;1.70;99.90;;;;;;4973394;28;20234;-56
2021/11/23 08:14:18;;;;;;;13.03;9.53;;;2.00;99.90;;;;;;4973366;28;20275;-56
2021/11/23 08:16:44;;;;;;;12.40;9.23;;;2.00;99.90;;;;;;4973681;28;20204;-56
2021/11/23 08:19:11;;;;;;;11.97;9.03;;;2.10;99.90;;;;;;4973650;28;20208;-55
2021/11/23 08:21:39;;;;;;;10.37;9.27;;;2.20;99.90;;;;;;4973157;28;20724;-56
2021/11/23 08:24:06;;;;;;;16.47;9.43;;;2.40;99.90;;;;;;4973488;28;20577;-56
2021/11/23 08:26:33;;;;;;;9.40;8.03;;;2.60;99.90;;;;;;4973533;28;20208;-56
2021/11/23 08:29:00;;;;;;;11.23;8.60;;;2.80;99.90;;;;;;4973441;28;20204;-55
2021/11/23 08:31:26;;;;;;;9.13;8.10;;;2.90;99.90;;;;;;4973669;28;20600;-55
2021/11/23 08:33:53;;;;;;;11.10;8.37;;;3.00;99.90;;;;;;4973116;28;20710;-55
2021/11/23 08:36:20;;;;;;;11.33;7.70;;;3.10;99.90;;;;;;4975572;28;20208;-55
2021/11/23 08:38:48;;;;;;;9.30;7.73;;;3.20;99.90;;;;;;4976530;28;20212;-55
2021/11/23 08:41:15;;;;;;;9.77;8.27;;;3.30;99.90;;;;;;4974283;28;20704;-56
2021/11/23 08:43:41;;;;;;;14.20;9.47;;;3.40;99.90;;;;;;4973105;28;20215;-56
2021/11/23 08:46:08;;;;;;;8.20;7.00;;;3.40;99.90;;;;;;4973433;28;20235;-55
2021/11/23 08:48:35;;;;;;;8.27;6.80;;;3.50;99.90;;;;;;4973832;28;20584;-62
2021/11/23 08:51:03;;;;;;;7.70;6.90;;;3.60;99.90;;;;;;4973238;28;20234;-56
2021/11/23 08:53:30;;;;;;;7.03;6.33;;;3.60;99.90;;;;;;4972986;28;20212;-57
2021/11/23 08:55:58;;;;;;;7.53;6.73;;;3.60;99.90;;;;;;4973246;28;20611;-57
2021/11/23 08:58:25;;;;;;;7.83;6.07;;;3.60;99.90;;;;;;4973313;28;20235;-57
2021/11/23 09:00:52;;;;;;;7.20;6.50;;;3.60;99.90;;;;;;4973104;28;20232;-57
2021/11/23 09:03:18;;;;;;;7.43;6.63;;;3.60;99.90;;;;;;4973023;28;20216;-55
2021/11/23 09:05:45;;;;;;;7.50;6.73;;;3.60;99.90;;;;;;4973202;28;20208;-56
2021/11/23 09:08:12;;;;;;;7.90;6.97;;;3.70;99.90;;;;;;4973126;28;20291;-57
2021/11/23 09:10:40;;;;;;;7.67;6.47;;;3.80;99.90;;;;;;4976772;28;20236;-57
2021/11/23 09:13:11;;;;;;;9.10;6.93;;;3.90;99.90;;;;;;4976870;28;20269;-56
2021/11/23 09:15:38;;;;;;;8.97;6.70;;;4.00;99.90;;;;;;4976683;28;20232;-57
2021/11/23 09:18:06;;;;;;;7.13;6.30;;;4.00;99.90;;;;;;4976665;28;20208;-57
2021/11/23 09:20:36;;;;;;;7.40;6.70;;;4.10;99.90;;;;;;4976465;28;20219;-57
2021/11/23 09:23:05;;;;;;;12.33;6.50;;;4.20;99.90;;;;;;4976383;28;20211;-57
2021/11/23 09:25:32;;;;;;;7.90;6.67;;;4.30;99.90;;;;;;4976871;28;20216;-58
2021/11/23 09:28:00;;;;;;;7.20;6.50;;;4.30;99.90;;;;;;4976845;28;20216;-57
2021/11/23 09:30:30;;;;;;;8.57;5.30;;;4.40;99.90;;;;;;4976431;28;20688;-57
2021/11/23 09:32:58;;;;;;;8.30;6.07;;;4.50;99.90;;;;;;4976233;28;20216;-58
2021/11/23 09:35:25;;;;;;;6.30;5.70;;;4.50;99.90;;;;;;4976191;28;20232;-58
2021/11/23 09:37:52;;;;;;;7.57;6.63;;;4.60;99.90;;;;;;4976578;28;20204;-57
2021/11/23 09:40:19;;;;;;;7.13;6.20;;;4.60;99.90;;;;;;4976508;28;20216;-57
2021/11/23 09:42:47;;;;;;;7.97;5.57;;;4.70;99.90;;;;;;4976495;28;20211;-58
2021/11/23 09:45:15;;;;;;;9.37;6.87;;;4.70;99.90;;;;;;4976446;28;20216;-58
2021/11/23 09:47:43;;;;;;;7.93;6.17;;;4.80;99.90;;;;;;4976157;28;20292;-58
2021/11/23 09:50:11;;;;;;;7.20;6.17;;;4.90;99.90;;;;;;4976202;28;20216;-58
2021/11/23 09:52:38;;;;;;;8.00;6.20;;;4.90;99.90;;;;;;4975837;28;20619;-58
2021/11/23 09:55:06;;;;;;;7.47;5.83;;;5.00;99.90;;;;;;4976260;28;20228;-58
2021/11/23 09:57:33;;;;;;;5.60;5.10;;;5.10;99.90;;;;;;4975927;28;20215;-58
2021/11/23 10:00:00;;;;;;;8.67;5.87;;;5.20;99.90;;;;;;4976137;28;20215;-58
2021/11/23 10:02:30;;;;;;;8.20;6.13;;;5.30;99.90;;;;;;4975822;28;20235;-58
2021/11/23 10:05:01;;;;;;;6.30;5.47;;;5.40;99.90;;;;;;4976276;28;20623;-58
2021/11/23 10:07:36;;;;;;;9.13;6.10;;;5.50;99.90;;;;;;4975558;28;20204;-58
2021/11/23 10:10:14;;;;;;;5.97;5.37;;;5.70;99.90;;;;;;4976009;28;20235;-58
2021/11/23 10:12:51;;;;;;;7.20;6.10;;;5.80;99.90;;;;;;4975594;28;20219;-58
2021/11/23 10:15:19;;;;;;;8.03;5.40;;;6.00;99.90;;;;;;4975636;28;20576;-57
2021/11/23 10:17:50;;;;;;;6.10;5.07;;;6.10;99.90;;;;;;4975860;28;20215;-58
2021/11/23 10:20:31;;;;;;;6.27;5.20;;;6.30;99.90;;;;;;4974763;28;20204;-58
2021/11/23 10:23:10;;;;;;;5.73;5.20;;;6.40;99.90;;;;;;4975567;28;20243;-60
2021/11/23 10:25:37;;;;;;;5.53;4.90;;;6.50;99.90;;;;;;4975580;28;20212;-58
2021/11/23 10:28:04;;;;;;;5.30;4.50;;;6.60;99.90;;;;;;4975823;28;20215;-57
2021/11/23 10:30:31;;;;;;;6.37;5.07;;;6.70;99.90;;;;;;4975491;28;20219;-58
2021/11/23 10:32:58;;;;;;;7.97;5.10;;;6.80;99.90;;;;;;4975438;28;20212;-58
2021/11/23 10:35:28;;;;;;;5.47;4.97;;;6.90;99.90;;;;;;4975399;28;20224;-58
2021/11/23 10:37:55;;;;;;;6.07;4.30;;;7.10;99.90;;;;;;4975545;28;20204;-59
2021/11/23 10:40:25;;;;;;;5.40;4.07;;;7.10;99.90;;;;;;4975728;28;20208;-58
2021/11/23 10:42:54;;;;;;;6.87;4.80;;;7.10;99.90;;;;;;4975603;28;20255;-58
2021/11/23 10:45:21;;;;;;;3.37;2.90;;;7.20;99.90;;;;;;4975818;28;20223;-58
2021/11/23 10:47:50;;;;;;;3.33;2.90;;;7.20;99.90;;;;;;4975881;28;20215;-59
2021/11/23 10:50:18;;;;;;;3.60;3.27;;;7.20;99.90;;;;;;4975142;28;20665;-59
2021/11/23 10:52:48;;;;;;;4.03;2.73;;;7.20;99.90;;;;;;4975429;28;20215;-59
2021/11/23 10:55:29;;;;;;;3.13;2.67;;;7.20;99.90;;;;;;4975929;28;20731;-59
2021/11/23 10:57:58;;;;;;;3.57;2.57;;;7.20;99.90;;;;;;4975147;28;20204;-58
2021/11/23 11:00:29;;;;;;;4.33;3.30;;;7.20;99.90;;;;;;4974955;28;20263;-59
2021/11/23 11:02:59;;;;;;;5.87;3.53;;;7.20;99.90;;;;;;4974886;28;20636;-59
2021/11/23 11:05:27;;;;;;;2.60;2.40;;;7.30;99.90;;;;;;4975387;28;20219;-59
2021/11/23 11:07:57;;;;;;;2.77;2.47;;;7.40;99.90;;;;;;4975000;28;20212;-59
2021/11/23 11:10:24;;;;;;;3.47;2.63;;;7.40;99.90;;;;;;4974689;28;20588;-59
2021/11/23 11:12:51;;;;;;;4.27;2.70;;;7.40;99.90;;;;;;4974548;28;20235;-59
2021/11/23 11:15:22;;;;;;;3.23;2.60;;;7.50;99.90;;;;;;4974238;28;20228;-59
2021/11/23 11:17:49;;;;;;;4.43;2.70;;;7.70;99.90;;;;;;4974767;28;20192;-59
2021/11/23 11:20:33;;;;;;;2.40;2.20;;;7.90;99.90;;;;;;4974799;28;20594;-59
2021/11/23 11:23:07;;;;;;;3.40;2.80;;;8.10;99.90;;;;;;4974639;28;20212;-59
2021/11/23 11:26:12;;;;;;;4.27;2.77;;;8.20;99.90;;;;;;4974695;28;20208;-59
2021/11/23 11:28:42;;;;;;;2.77;2.20;;;8.20;99.90;;;;;;4974617;28;20207;-59
2021/11/23 11:31:37;;;;;;;3.20;2.73;;;8.30;99.90;;;;;;4974393;28;20264;-58
2021/11/23 11:34:31;;;;;;;3.73;2.43;;;8.40;99.90;;;;;;4973978;28;20220;-59
2021/11/23 11:37:02;;;;;;;3.53;2.30;;;8.50;99.90;;;;;;4928988;28;20204;-58
2021/11/23 11:39:54;;;;;;;2.43;2.00;;;8.60;99.90;;;;;;4974267;28;20204;-58
2021/11/23 11:42:47;;;;;;;2.47;2.00;;;8.70;99.90;;;;;;4974054;28;20287;-58
2021/11/23 11:45:15;;;;;;;3.83;3.13;;;8.70;99.90;;;;;;4973958;28;20204;-59
2021/11/23 11:47:43;;;;;;;2.53;1.93;;;8.80;99.90;;;;;;4974247;28;20632;-58
2021/11/23 11:50:18;;;;;;;3.60;2.10;;;8.80;99.90;;;;;;4974197;28;20208;-58
2021/11/23 11:53:05;;;;;;;3.97;1.50;;;8.70;99.90;;;;;;4973990;28;20640;-59
2021/11/23 11:55:35;;;;;;;2.10;1.80;;;8.70;99.90;;;;;;4974205;28;20224;-59
2021/11/23 11:58:05;;;;;;;1.90;1.60;;;8.60;99.90;;;;;;4974188;28;20212;-59
2021/11/23 12:00:33;;;;;;;4.30;1.90;;;8.60;99.90;;;;;;4973805;28;20204;-59
2021/11/23 12:03:35;;;;;;;1.80;1.60;;;8.60;99.90;;;;;;4973896;28;20673;-59
2021/11/23 12:06:06;;;;;;;2.97;1.93;;;8.70;99.90;;;;;;4975141;28;20349;-60
2021/11/23 12:08:35;;;;;;;3.97;1.60;;;8.80;99.90;;;;;;4973944;28;20672;-60
2021/11/23 12:11:07;;;;;;;1.87;1.60;;;8.90;99.90;;;;;;4973959;28;20232;-59
2021/11/23 12:13:41;;;;;;;1.60;1.30;;;8.90;99.90;;;;;;4973921;28;20208;-59
2021/11/23 12:16:13;;;;;;;1.33;1.20;;;8.90;99.90;;;;;;4973513;28;20219;-60
2021/11/23 12:19:22;;;;;;;2.37;1.30;;;8.90;99.90;;;;;;4974137;28;20208;-60
2021/11/23 12:21:54;;;;;;;2.50;1.93;;;8.80;99.90;;;;;;4974568;28;20730;-60
2021/11/23 12:24:29;;;;;;;5.57;3.73;;;8.80;99.90;;;;;;4974045;28;20213;-60
2021/11/23 12:27:07;;;;;;;2.13;1.90;;;8.90;99.90;;;;;;4973559;28;20716;-58
2021/11/23 12:29:33;;;;;;;1.60;1.50;;;9.00;99.70;;;;;;4973497;28;20208;-58
2021/11/23 12:32:00;;;;;;;1.80;1.63;;;9.10;99.70;;;;;;4973080;28;20432;-59
2021/11/23 12:34:27;;;;;;;1.77;1.63;;;9.10;99.90;;;;;;4973582;28;20208;-59
2021/11/23 12:36:56;;;;;;;2.17;1.50;;;9.30;99.90;;;;;;4973091;28;20631;-59
2021/11/23 12:39:25;;;;;;;4.50;3.53;;;9.30;99.40;;;;;;4973819;28;20208;-59
2021/11/23 12:42:01;;;;;;;1.97;1.50;;;9.30;99.50;;;;;;4973552;28;20232;-59
2021/11/23 12:44:33;;;;;;;1.63;1.43;;;9.40;99.60;;;;;;4973236;28;20216;-59
2021/11/23 12:47:02;;;;;;;1.63;1.53;;;9.40;99.60;;;;;;4973599;28;20223;-59
2021/11/23 12:49:33;;;;;;;1.57;1.47;;;9.50;99.30;;;;;;4973108;28;20587;-59
2021/11/23 12:52:02;;;;;;;2.00;1.43;;;9.40;99.20;;;;;;4973282;28;20745;-59
2021/11/23 12:54:31;;;;;;;3.47;1.70;;;9.20;99.60;;;;;;4973593;28;20208;-59
2021/11/23 12:57:04;;;;;;;1.97;1.50;;;9.20;99.60;;;;;;4973170;28;20688;-59
2021/11/23 12:59:41;;;;;;;1.80;1.60;;;9.20;99.60;;;;;;4973324;28;20219;-59
2021/11/23 13:02:30;;;;;;;2.83;1.70;;;9.20;99.40;;;;;;4973114;28;20232;-59